sensor_id;sensor_type;location;lat;lon;timestamp;temperature;humidity
13806;DHT22;6974;53.606;9.872;2023-03-14T00:00:06;12.20;99.90
13806;DHT22;6974;53.606;9.872;2023-03-14T00:02:36;12.10;99.90
13806;DHT22;6974;53.606;9.872;2023-03-14T00:05:03;12.10;99.90
13806;DHT22;6974;53.606;9.872;2023-03-14T00:07:33;12.10;99.90
13806;DHT22;6974;53.606;9.872;2023-03-14T00:10:05;12.10;99.90
13806;DHT22;6974;53.606;9.872;2023-03-14T00:12:32;12.10;99.90
13806;DHT22;6974;53.606;9.872;2023-03-14T00:14:59;12.10;99.90
13806;DHT22;6974;53.606;9.872;2023-03-14T00:17:29;12.00;99.90
13806;DHT22;6974;53.606;9.872;2023-03-14T00:19:56;12.00;99.90
13806;DHT22;6974;53.606;9.872;2023-03-14T00:22:29;12.00;99.90
13806;DHT22;6974;53.606;9.872;2023-03-14T00:24:58;12.00;99.90
13806;DHT22;6974;53.606;9.872;2023-03-14T00:27:25;12.00;99.90
13806;DHT22;6974;53.606;9.872;2023-03-14T00:29:52;11.90;99.90
13806;DHT22;6974;53.606;9.872;2023-03-14T00:32:19;11.90;99.90
13806;DHT22;6974;53.606;9.872;2023-03-14T00:34:46;11.90;99.90
13806;DHT22;6974;53.606;9.872;2023-03-14T00:37:13;12.00;99.90
13806;DHT22;6974;53.606;9.872;2023-03-14T00:39:40;12.00;99.90
13806;DHT22;6974;53.606;9.872;2023-03-14T00:42:08;12.00;99.90
13806;DHT22;6974;53.606;9.872;2023-03-14T00:44:36;12.00;99.90
13806;DHT22;6974;53.606;9.872;2023-03-14T00:47:03;12.00;99.90
13806;DHT22;6974;53.606;9.872;2023-03-14T00:49:30;12.10;99.90
13806;DHT22;6974;53.606;9.872;2023-03-14T00:51:57;12.10;99.90
13806;DHT22;6974;53.606;9.872;2023-03-14T00:54:24;12.10;99.90
13806;DHT22;6974;53.606;9.872;2023-03-14T00:56:51;12.10;99.90
13806;DHT22;6974;53.606;9.872;2023-03-14T00:59:19;12.00;99.90
13806;DHT22;6974;53.606;9.872;2023-03-14T01:01:46;12.00;99.90
13806;DHT22;6974;53.606;9.872;2023-03-14T01:04:14;12.00;99.90
13806;DHT22;6974;53.606;9.872;2023-03-14T01:06:41;12.10;99.90
13806;DHT22;6974;53.606;9.872;2023-03-14T01:09:08;12.00;99.90
13806;DHT22;6974;53.606;9.872;2023-03-14T01:11:36;12.00;99.90
13806;DHT22;6974;53.606;9.872;2023-03-14T01:14:03;12.00;99.90
13806;DHT22;6974;53.606;9.872;2023-03-14T01:16:33;12.10;99.90
13806;DHT22;6974;53.606;9.872;2023-03-14T01:19:01;12.00;99.90
13806;DHT22;6974;53.606;9.872;2023-03-14T01:21:30;12.00;99.90
13806;DHT22;6974;53.606;9.872;2023-03-14T01:23:59;12.10;99.90
13806;DHT22;6974;53.606;9.872;2023-03-14T01:26:29;12.10;99.90
13806;DHT22;6974;53.606;9.872;2023-03-14T01:28:56;12.10;99.90
13806;DHT22;6974;53.606;9.872;2023-03-14T01:31:24;12.10;99.90
13806;DHT22;6974;53.606;9.872;2023-03-14T01:33:52;12.10;99.90
13806;DHT22;6974;53.606;9.872;2023-03-14T01:36:20;12.10;99.90
13806;DHT22;6974;53.606;9.872;2023-03-14T01:38:47;12.10;99.90
13806;DHT22;6974;53.606;9.872;2023-03-14T01:41:15;12.20;99.90
13806;DHT22;6974;53.606;9.872;2023-03-14T01:43:43;12.10;99.90
13806;DHT22;6974;53.606;9.872;2023-03-14T01:46:19;12.10;99.90
13806;DHT22;6974;53.606;9.872;2023-03-14T01:49:01;12.10;99.90
13806;DHT22;6974;53.606;9.872;2023-03-14T01:51:38;12.10;99.90
13806;DHT22;6974;53.606;9.872;2023-03-14T01:54:10;12.10;99.90
13806;DHT22;6974;53.606;9.872;2023-03-14T01:56:39;12.10;99.90
13806;DHT22;6974;53.606;9.872;2023-03-14T01:59:09;12.10;99.90
13806;DHT22;6974;53.606;9.872;2023-03-14T02:01:39;12.10;99.90
13806;DHT22;6974;53.606;9.872;2023-03-14T02:04:10;12.10;99.90
13806;DHT22;6974;53.606;9.872;2023-03-14T02:06:44;12.10;99.90
13806;DHT22;6974;53.606;9.872;2023-03-14T02:09:14;12.00;99.90
13806;DHT22;6974;53.606;9.872;2023-03-14T02:11:41;12.00;99.90
13806;DHT22;6974;53.606;9.872;2023-03-14T02:14:13;12.00;99.90
13806;DHT22;6974;53.606;9.872;2023-03-14T02:16:40;12.00;99.90
13806;DHT22;6974;53.606;9.872;2023-03-14T02:19:09;12.00;99.90
13806;DHT22;6974;53.606;9.872;2023-03-14T02:21:45;12.00;99.90
13806;DHT22;6974;53.606;9.872;2023-03-14T02:24:18;11.90;99.90
13806;DHT22;6974;53.606;9.872;2023-03-14T02:29:46;11.90;99.90
13806;DHT22;6974;53.606;9.872;2023-03-14T02:32:14;11.80;99.90
13806;DHT22;6974;53.606;9.872;2023-03-14T02:34:43;11.80;99.90
13806;DHT22;6974;53.606;9.872;2023-03-14T02:37:12;11.70;99.90
13806;DHT22;6974;53.606;9.872;2023-03-14T02:39:43;11.80;99.90
13806;DHT22;6974;53.606;9.872;2023-03-14T02:42:12;11.80;99.90
13806;DHT22;6974;53.606;9.872;2023-03-14T02:44:53;11.80;99.90
13806;DHT22;6974;53.606;9.872;2023-03-14T02:47:27;11.80;99.90
13806;DHT22;6974;53.606;9.872;2023-03-14T02:50:00;11.70;99.90
13806;DHT22;6974;53.606;9.872;2023-03-14T02:52:28;11.70;99.90
13806;DHT22;6974;53.606;9.872;2023-03-14T02:54:55;11.60;99.90
13806;DHT22;6974;53.606;9.872;2023-03-14T02:57:22;11.70;99.90
13806;DHT22;6974;53.606;9.872;2023-03-14T02:59:50;11.70;99.90
13806;DHT22;6974;53.606;9.872;2023-03-14T03:02:17;11.80;99.90
13806;DHT22;6974;53.606;9.872;2023-03-14T03:04:44;11.80;99.90
13806;DHT22;6974;53.606;9.872;2023-03-14T03:07:11;11.70;99.90
13806;DHT22;6974;53.606;9.872;2023-03-14T03:09:38;11.80;99.90
13806;DHT22;6974;53.606;9.872;2023-03-14T03:12:05;11.80;99.90
13806;DHT22;6974;53.606;9.872;2023-03-14T03:14:32;11.80;99.90
13806;DHT22;6974;53.606;9.872;2023-03-14T03:17:00;11.80;99.90
13806;DHT22;6974;53.606;9.872;2023-03-14T03:19:27;11.80;99.90
13806;DHT22;6974;53.606;9.872;2023-03-14T03:21:54;11.80;99.90
13806;DHT22;6974;53.606;9.872;2023-03-14T03:24:20;11.80;99.90
13806;DHT22;6974;53.606;9.872;2023-03-14T03:26:47;11.90;99.90
13806;DHT22;6974;53.606;9.872;2023-03-14T03:29:14;11.80;99.90
13806;DHT22;6974;53.606;9.872;2023-03-14T03:31:41;11.90;99.90
13806;DHT22;6974;53.606;9.872;2023-03-14T03:34:12;12.00;99.90
13806;DHT22;6974;53.606;9.872;2023-03-14T03:36:39;12.00;99.90
13806;DHT22;6974;53.606;9.872;2023-03-14T03:39:06;12.00;99.90
13806;DHT22;6974;53.606;9.872;2023-03-14T03:41:33;12.00;99.90
13806;DHT22;6974;53.606;9.872;2023-03-14T03:44:00;12.00;99.90
13806;DHT22;6974;53.606;9.872;2023-03-14T03:46:27;12.00;99.90
13806;DHT22;6974;53.606;9.872;2023-03-14T03:48:55;12.00;99.90
13806;DHT22;6974;53.606;9.872;2023-03-14T03:51:23;12.00;99.90
13806;DHT22;6974;53.606;9.872;2023-03-14T03:53:50;12.00;99.90
13806;DHT22;6974;53.606;9.872;2023-03-14T03:56:17;12.00;99.90
13806;DHT22;6974;53.606;9.872;2023-03-14T03:58:44;12.00;99.90
13806;DHT22;6974;53.606;9.872;2023-03-14T04:01:11;12.00;99.90
13806;DHT22;6974;53.606;9.872;2023-03-14T04:03:38;12.00;99.90
13806;DHT22;6974;53.606;9.872;2023-03-14T04:06:08;12.00;99.90
13806;DHT22;6974;53.606;9.872;2023-03-14T04:08:36;12.00;99.90
13806;DHT22;6974;53.606;9.872;2023-03-14T04:11:04;12.00;99.90
13806;DHT22;6974;53.606;9.872;2023-03-14T04:13:31;12.00;99.90
13806;DHT22;6974;53.606;9.872;2023-03-14T04:15:58;11.90;99.90
13806;DHT22;6974;53.606;9.872;2023-03-14T04:18:26;12.00;99.90
13806;DHT22;6974;53.606;9.872;2023-03-14T04:20:53;11.90;99.90
13806;DHT22;6974;53.606;9.872;2023-03-14T04:23:20;12.00;99.90
13806;DHT22;6974;53.606;9.872;2023-03-14T04:25:48;12.00;99.90
13806;DHT22;6974;53.606;9.872;2023-03-14T04:28:15;12.00;99.90
13806;DHT22;6974;53.606;9.872;2023-03-14T04:30:42;12.00;99.90
13806;DHT22;6974;53.606;9.872;2023-03-14T04:33:09;12.00;99.90
13806;DHT22;6974;53.606;9.872;2023-03-14T04:35:38;12.00;99.90
13806;DHT22;6974;53.606;9.872;2023-03-14T04:38:04;12.00;99.90
13806;DHT22;6974;53.606;9.872;2023-03-14T04:40:31;12.10;99.90
13806;DHT22;6974;53.606;9.872;2023-03-14T04:42:59;12.00;99.90
13806;DHT22;6974;53.606;9.872;2023-03-14T04:45:26;12.00;99.90
13806;DHT22;6974;53.606;9.872;2023-03-14T04:47:53;11.90;99.90
13806;DHT22;6974;53.606;9.872;2023-03-14T04:50:20;11.80;99.90
13806;DHT22;6974;53.606;9.872;2023-03-14T04:52:47;11.60;99.90
13806;DHT22;6974;53.606;9.872;2023-03-14T04:55:14;11.50;99.90
13806;DHT22;6974;53.606;9.872;2023-03-14T04:57:41;11.40;99.90
13806;DHT22;6974;53.606;9.872;2023-03-14T05:00:10;11.40;99.90
13806;DHT22;6974;53.606;9.872;2023-03-14T05:02:37;11.40;99.90
13806;DHT22;6974;53.606;9.872;2023-03-14T05:05:05;11.40;99.90
13806;DHT22;6974;53.606;9.872;2023-03-14T05:07:32;11.30;99.90
13806;DHT22;6974;53.606;9.872;2023-03-14T05:09:59;11.20;99.90
13806;DHT22;6974;53.606;9.872;2023-03-14T05:12:25;11.20;99.90
13806;DHT22;6974;53.606;9.872;2023-03-14T05:14:52;11.20;99.90
13806;DHT22;6974;53.606;9.872;2023-03-14T05:17:20;11.30;99.90
13806;DHT22;6974;53.606;9.872;2023-03-14T05:19:47;11.10;99.90
13806;DHT22;6974;53.606;9.872;2023-03-14T05:22:14;11.10;99.90
13806;DHT22;6974;53.606;9.872;2023-03-14T05:24:41;11.00;99.90
13806;DHT22;6974;53.606;9.872;2023-03-14T05:27:08;11.00;99.90
13806;DHT22;6974;53.606;9.872;2023-03-14T05:29:34;11.00;99.90
13806;DHT22;6974;53.606;9.872;2023-03-14T05:32:01;10.90;99.90
13806;DHT22;6974;53.606;9.872;2023-03-14T05:34:30;10.90;99.90
13806;DHT22;6974;53.606;9.872;2023-03-14T05:36:56;10.90;99.90
13806;DHT22;6974;53.606;9.872;2023-03-14T05:39:23;10.90;99.90
13806;DHT22;6974;53.606;9.872;2023-03-14T05:41:50;11.00;99.90
13806;DHT22;6974;53.606;9.872;2023-03-14T05:44:19;10.90;99.90
13806;DHT22;6974;53.606;9.872;2023-03-14T05:46:46;10.90;99.90
13806;DHT22;6974;53.606;9.872;2023-03-14T05:49:12;10.90;99.90
13806;DHT22;6974;53.606;9.872;2023-03-14T05:51:41;10.90;99.90
13806;DHT22;6974;53.606;9.872;2023-03-14T05:54:08;10.90;99.90
13806;DHT22;6974;53.606;9.872;2023-03-14T05:56:35;10.90;99.90
13806;DHT22;6974;53.606;9.872;2023-03-14T05:59:01;10.90;99.90
13806;DHT22;6974;53.606;9.872;2023-03-14T06:01:29;11.00;99.90
13806;DHT22;6974;53.606;9.872;2023-03-14T06:03:56;11.00;99.90
13806;DHT22;6974;53.606;9.872;2023-03-14T06:06:22;11.00;99.90
13806;DHT22;6974;53.606;9.872;2023-03-14T06:08:51;11.10;99.90
13806;DHT22;6974;53.606;9.872;2023-03-14T06:11:17;11.00;99.90
13806;DHT22;6974;53.606;9.872;2023-03-14T06:13:44;11.00;99.90
13806;DHT22;6974;53.606;9.872;2023-03-14T06:16:12;10.90;99.90
13806;DHT22;6974;53.606;9.872;2023-03-14T06:18:39;10.90;99.90
13806;DHT22;6974;53.606;9.872;2023-03-14T06:21:07;11.00;99.90
13806;DHT22;6974;53.606;9.872;2023-03-14T06:23:34;11.00;99.90
13806;DHT22;6974;53.606;9.872;2023-03-14T06:26:02;11.00;99.90
13806;DHT22;6974;53.606;9.872;2023-03-14T06:28:29;11.00;99.90
13806;DHT22;6974;53.606;9.872;2023-03-14T06:30:55;11.00;99.90
13806;DHT22;6974;53.606;9.872;2023-03-14T06:33:22;11.00;99.90
13806;DHT22;6974;53.606;9.872;2023-03-14T06:35:49;11.00;99.90
13806;DHT22;6974;53.606;9.872;2023-03-14T06:38:17;10.90;99.90
13806;DHT22;6974;53.606;9.872;2023-03-14T06:40:44;11.00;99.90
13806;DHT22;6974;53.606;9.872;2023-03-14T06:43:12;11.00;99.90
13806;DHT22;6974;53.606;9.872;2023-03-14T06:45:39;10.90;99.90
13806;DHT22;6974;53.606;9.872;2023-03-14T06:48:06;10.90;99.90
13806;DHT22;6974;53.606;9.872;2023-03-14T06:50:33;11.00;99.90
13806;DHT22;6974;53.606;9.872;2023-03-14T06:53:00;11.00;99.90
13806;DHT22;6974;53.606;9.872;2023-03-14T06:55:27;11.00;99.90
13806;DHT22;6974;53.606;9.872;2023-03-14T06:57:54;11.00;99.90
13806;DHT22;6974;53.606;9.872;2023-03-14T07:00:23;11.00;99.90
13806;DHT22;6974;53.606;9.872;2023-03-14T07:02:50;11.00;99.90
13806;DHT22;6974;53.606;9.872;2023-03-14T07:05:17;11.00;99.90
13806;DHT22;6974;53.606;9.872;2023-03-14T07:07:44;11.10;99.90
13806;DHT22;6974;53.606;9.872;2023-03-14T07:10:11;11.00;99.90
13806;DHT22;6974;53.606;9.872;2023-03-14T07:12:38;11.10;99.90
13806;DHT22;6974;53.606;9.872;2023-03-14T07:15:05;11.10;99.90
13806;DHT22;6974;53.606;9.872;2023-03-14T07:17:34;11.10;99.90
13806;DHT22;6974;53.606;9.872;2023-03-14T07:20:00;11.10;99.90
13806;DHT22;6974;53.606;9.872;2023-03-14T07:22:29;11.20;99.90
13806;DHT22;6974;53.606;9.872;2023-03-14T07:24:56;11.10;99.90
13806;DHT22;6974;53.606;9.872;2023-03-14T07:27:23;11.00;99.90
13806;DHT22;6974;53.606;9.872;2023-03-14T07:29:50;11.00;99.90
13806;DHT22;6974;53.606;9.872;2023-03-14T07:32:16;11.10;99.90
13806;DHT22;6974;53.606;9.872;2023-03-14T07:34:45;11.10;99.90
13806;DHT22;6974;53.606;9.872;2023-03-14T07:37:11;11.20;99.90
13806;DHT22;6974;53.606;9.872;2023-03-14T07:39:38;11.20;99.90
13806;DHT22;6974;53.606;9.872;2023-03-14T07:42:05;11.20;99.90
13806;DHT22;6974;53.606;9.872;2023-03-14T07:44:32;11.20;99.90
13806;DHT22;6974;53.606;9.872;2023-03-14T07:46:59;11.10;99.90
13806;DHT22;6974;53.606;9.872;2023-03-14T07:49:26;11.10;99.90
13806;DHT22;6974;53.606;9.872;2023-03-14T07:51:54;11.20;99.90
13806;DHT22;6974;53.606;9.872;2023-03-14T07:54:21;11.20;99.90
13806;DHT22;6974;53.606;9.872;2023-03-14T07:56:49;11.20;99.90
13806;DHT22;6974;53.606;9.872;2023-03-14T07:59:15;11.20;99.90
13806;DHT22;6974;53.606;9.872;2023-03-14T08:01:42;11.10;99.90
13806;DHT22;6974;53.606;9.872;2023-03-14T08:04:09;11.10;99.90
13806;DHT22;6974;53.606;9.872;2023-03-14T08:06:36;11.10;99.90
13806;DHT22;6974;53.606;9.872;2023-03-14T08:09:04;11.20;99.90
13806;DHT22;6974;53.606;9.872;2023-03-14T08:11:31;11.30;99.90
13806;DHT22;6974;53.606;9.872;2023-03-14T08:13:58;11.20;99.90
13806;DHT22;6974;53.606;9.872;2023-03-14T08:16:25;11.20;99.90
13806;DHT22;6974;53.606;9.872;2023-03-14T08:18:52;11.30;99.90
13806;DHT22;6974;53.606;9.872;2023-03-14T08:21:18;11.30;99.90
13806;DHT22;6974;53.606;9.872;2023-03-14T08:23:45;11.30;99.90
13806;DHT22;6974;53.606;9.872;2023-03-14T08:26:13;11.30;99.90
13806;DHT22;6974;53.606;9.872;2023-03-14T08:28:40;11.40;99.90
13806;DHT22;6974;53.606;9.872;2023-03-14T08:31:07;11.40;99.90
13806;DHT22;6974;53.606;9.872;2023-03-14T08:33:34;11.40;99.90
13806;DHT22;6974;53.606;9.872;2023-03-14T08:36:01;11.40;99.90
13806;DHT22;6974;53.606;9.872;2023-03-14T08:38:28;11.40;99.90
13806;DHT22;6974;53.606;9.872;2023-03-14T08:40:56;11.30;99.90
13806;DHT22;6974;53.606;9.872;2023-03-14T08:43:25;11.40;99.90
13806;DHT22;6974;53.606;9.872;2023-03-14T08:45:52;11.50;99.90
13806;DHT22;6974;53.606;9.872;2023-03-14T08:48:19;11.40;99.90
13806;DHT22;6974;53.606;9.872;2023-03-14T08:50:46;11.40;99.90
13806;DHT22;6974;53.606;9.872;2023-03-14T08:53:13;11.50;99.90
13806;DHT22;6974;53.606;9.872;2023-03-14T08:55:40;11.50;99.90
13806;DHT22;6974;53.606;9.872;2023-03-14T08:58:07;11.60;99.90
13806;DHT22;6974;53.606;9.872;2023-03-14T09:00:35;11.40;99.90
13806;DHT22;6974;53.606;9.872;2023-03-14T09:03:02;11.40;99.90
13806;DHT22;6974;53.606;9.872;2023-03-14T09:05:32;11.40;99.90
13806;DHT22;6974;53.606;9.872;2023-03-14T09:07:58;11.30;99.90
13806;DHT22;6974;53.606;9.872;2023-03-14T09:10:25;11.30;99.90
13806;DHT22;6974;53.606;9.872;2023-03-14T09:12:52;11.30;99.90
13806;DHT22;6974;53.606;9.872;2023-03-14T09:15:19;11.30;99.90
13806;DHT22;6974;53.606;9.872;2023-03-14T09:17:47;11.40;99.90
13806;DHT22;6974;53.606;9.872;2023-03-14T09:20:14;11.40;99.90
13806;DHT22;6974;53.606;9.872;2023-03-14T09:22:41;11.40;99.90
13806;DHT22;6974;53.606;9.872;2023-03-14T09:25:08;11.40;99.90
13806;DHT22;6974;53.606;9.872;2023-03-14T09:27:35;11.40;99.90
13806;DHT22;6974;53.606;9.872;2023-03-14T09:30:02;11.40;99.90
13806;DHT22;6974;53.606;9.872;2023-03-14T09:32:29;11.30;99.90
13806;DHT22;6974;53.606;9.872;2023-03-14T09:34:58;11.30;99.90
13806;DHT22;6974;53.606;9.872;2023-03-14T09:37:25;11.30;99.90
13806;DHT22;6974;53.606;9.872;2023-03-14T09:39:52;11.20;99.90
13806;DHT22;6974;53.606;9.872;2023-03-14T09:42:22;11.30;99.90
13806;DHT22;6974;53.606;9.872;2023-03-14T09:44:54;11.20;99.90
13806;DHT22;6974;53.606;9.872;2023-03-14T09:47:23;10.90;99.90
13806;DHT22;6974;53.606;9.872;2023-03-14T09:49:50;10.50;99.90
13806;DHT22;6974;53.606;9.872;2023-03-14T09:52:23;10.20;99.90
13806;DHT22;6974;53.606;9.872;2023-03-14T09:54:52;9.70;99.90
13806;DHT22;6974;53.606;9.872;2023-03-14T09:57:24;9.50;99.90
13806;DHT22;6974;53.606;9.872;2023-03-14T09:59:54;9.50;99.90
13806;DHT22;6974;53.606;9.872;2023-03-14T10:02:24;9.30;99.90
13806;DHT22;6974;53.606;9.872;2023-03-14T10:04:53;9.20;99.90
13806;DHT22;6974;53.606;9.872;2023-03-14T10:07:29;9.10;99.90
13806;DHT22;6974;53.606;9.872;2023-03-14T10:09:57;8.90;99.90
13806;DHT22;6974;53.606;9.872;2023-03-14T10:12:32;8.80;99.90
13806;DHT22;6974;53.606;9.872;2023-03-14T10:15:03;8.70;99.90
13806;DHT22;6974;53.606;9.872;2023-03-14T10:17:38;8.70;99.90
13806;DHT22;6974;53.606;9.872;2023-03-14T10:20:06;8.60;99.90
13806;DHT22;6974;53.606;9.872;2023-03-14T10:22:38;8.60;99.90
13806;DHT22;6974;53.606;9.872;2023-03-14T10:25:06;8.60;99.90
13806;DHT22;6974;53.606;9.872;2023-03-14T10:27:46;8.50;99.90
13806;DHT22;6974;53.606;9.872;2023-03-14T10:30:32;8.30;99.90
13806;DHT22;6974;53.606;9.872;2023-03-14T10:33:08;8.20;99.90
13806;DHT22;6974;53.606;9.872;2023-03-14T10:35:35;7.90;99.90
13806;DHT22;6974;53.606;9.872;2023-03-14T10:38:04;7.70;99.90
13806;DHT22;6974;53.606;9.872;2023-03-14T10:40:33;7.40;99.90
13806;DHT22;6974;53.606;9.872;2023-03-14T10:43:04;7.30;99.90
13806;DHT22;6974;53.606;9.872;2023-03-14T10:45:34;7.30;99.90
13806;DHT22;6974;53.606;9.872;2023-03-14T10:48:20;7.20;99.90
13806;DHT22;6974;53.606;9.872;2023-03-14T10:50:56;7.10;99.90
13806;DHT22;6974;53.606;9.872;2023-03-14T10:53:25;7.00;99.90
13806;DHT22;6974;53.606;9.872;2023-03-14T10:55:52;6.90;99.90
13806;DHT22;6974;53.606;9.872;2023-03-14T10:58:24;6.80;99.90
13806;DHT22;6974;53.606;9.872;2023-03-14T11:01:02;6.80;99.90
13806;DHT22;6974;53.606;9.872;2023-03-14T11:03:32;6.90;99.90
13806;DHT22;6974;53.606;9.872;2023-03-14T11:06:06;7.00;99.90
13806;DHT22;6974;53.606;9.872;2023-03-14T11:08:42;6.90;99.90
13806;DHT22;6974;53.606;9.872;2023-03-14T11:11:16;6.70;99.90
13806;DHT22;6974;53.606;9.872;2023-03-14T11:13:57;6.70;99.90
13806;DHT22;6974;53.606;9.872;2023-03-14T11:16:31;6.60;99.90
13806;DHT22;6974;53.606;9.872;2023-03-14T11:19:10;6.40;99.90
13806;DHT22;6974;53.606;9.872;2023-03-14T11:21:46;6.40;99.90
13806;DHT22;6974;53.606;9.872;2023-03-14T11:24:35;6.50;99.90
13806;DHT22;6974;53.606;9.872;2023-03-14T11:27:12;6.40;99.90
13806;DHT22;6974;53.606;9.872;2023-03-14T11:29:46;6.50;99.90
13806;DHT22;6974;53.606;9.872;2023-03-14T11:32:22;6.60;99.90
13806;DHT22;6974;53.606;9.872;2023-03-14T11:34:52;6.70;99.90
13806;DHT22;6974;53.606;9.872;2023-03-14T11:37:24;6.60;99.90
13806;DHT22;6974;53.606;9.872;2023-03-14T11:39:59;6.70;99.90
13806;DHT22;6974;53.606;9.872;2023-03-14T11:42:28;6.80;99.90
13806;DHT22;6974;53.606;9.872;2023-03-14T11:44:56;6.90;99.90
13806;DHT22;6974;53.606;9.872;2023-03-14T11:47:26;6.90;99.90
13806;DHT22;6974;53.606;9.872;2023-03-14T11:50:00;6.90;99.90
13806;DHT22;6974;53.606;9.872;2023-03-14T11:52:30;7.00;99.90
13806;DHT22;6974;53.606;9.872;2023-03-14T11:55:04;7.20;99.90
13806;DHT22;6974;53.606;9.872;2023-03-14T11:57:32;7.20;99.90
13806;DHT22;6974;53.606;9.872;2023-03-14T12:00:04;7.20;99.90
13806;DHT22;6974;53.606;9.872;2023-03-14T12:02:41;7.10;99.90
13806;DHT22;6974;53.606;9.872;2023-03-14T12:08:44;7.10;99.90
13806;DHT22;6974;53.606;9.872;2023-03-14T12:11:19;7.00;99.90
13806;DHT22;6974;53.606;9.872;2023-03-14T12:13:49;7.00;99.90
13806;DHT22;6974;53.606;9.872;2023-03-14T12:16:37;7.10;99.90
13806;DHT22;6974;53.606;9.872;2023-03-14T12:19:35;7.20;99.90
13806;DHT22;6974;53.606;9.872;2023-03-14T12:22:24;7.30;99.90
13806;DHT22;6974;53.606;9.872;2023-03-14T12:24:55;7.20;99.90
13806;DHT22;6974;53.606;9.872;2023-03-14T12:30:35;7.30;99.90
13806;DHT22;6974;53.606;9.872;2023-03-14T12:33:27;7.30;99.90
13806;DHT22;6974;53.606;9.872;2023-03-14T12:35:59;7.30;99.90
13806;DHT22;6974;53.606;9.872;2023-03-14T12:38:33;7.40;99.90
13806;DHT22;6974;53.606;9.872;2023-03-14T12:41:11;7.40;99.90
13806;DHT22;6974;53.606;9.872;2023-03-14T12:43:38;7.40;99.90
13806;DHT22;6974;53.606;9.872;2023-03-14T12:46:18;7.40;99.90
13806;DHT22;6974;53.606;9.872;2023-03-14T12:48:47;7.40;99.90
13806;DHT22;6974;53.606;9.872;2023-03-14T12:51:17;7.40;99.90
13806;DHT22;6974;53.606;9.872;2023-03-14T12:56:45;7.30;99.90
13806;DHT22;6974;53.606;9.872;2023-03-14T12:59:28;7.20;99.90
13806;DHT22;6974;53.606;9.872;2023-03-14T13:02:00;7.20;99.90
13806;DHT22;6974;53.606;9.872;2023-03-14T13:04:31;7.20;99.90
13806;DHT22;6974;53.606;9.872;2023-03-14T13:07:00;7.20;99.90
13806;DHT22;6974;53.606;9.872;2023-03-14T13:09:53;7.30;99.90
13806;DHT22;6974;53.606;9.872;2023-03-14T13:12:25;7.30;99.90
13806;DHT22;6974;53.606;9.872;2023-03-14T13:14:59;7.30;99.90
13806;DHT22;6974;53.606;9.872;2023-03-14T13:17:32;7.30;99.90
13806;DHT22;6974;53.606;9.872;2023-03-14T13:20:02;7.30;99.90
13806;DHT22;6974;53.606;9.872;2023-03-14T13:22:33;7.50;99.90
13806;DHT22;6974;53.606;9.872;2023-03-14T13:25:04;7.60;99.90
13806;DHT22;6974;53.606;9.872;2023-03-14T13:27:33;7.60;99.90
13806;DHT22;6974;53.606;9.872;2023-03-14T13:30:11;7.60;99.90
13806;DHT22;6974;53.606;9.872;2023-03-14T13:32:42;7.50;99.90
13806;DHT22;6974;53.606;9.872;2023-03-14T13:35:18;7.40;99.90
13806;DHT22;6974;53.606;9.872;2023-03-14T13:37:45;7.40;99.90
13806;DHT22;6974;53.606;9.872;2023-03-14T13:40:20;7.20;99.90
13806;DHT22;6974;53.606;9.872;2023-03-14T13:42:47;7.20;99.90
13806;DHT22;6974;53.606;9.872;2023-03-14T13:45:14;7.20;99.90
13806;DHT22;6974;53.606;9.872;2023-03-14T13:47:43;7.40;99.90
13806;DHT22;6974;53.606;9.872;2023-03-14T13:50:15;7.40;99.90
13806;DHT22;6974;53.606;9.872;2023-03-14T13:52:43;7.60;99.90
13806;DHT22;6974;53.606;9.872;2023-03-14T13:55:15;7.60;99.90
13806;DHT22;6974;53.606;9.872;2023-03-14T13:57:46;7.50;99.90
13806;DHT22;6974;53.606;9.872;2023-03-14T14:00:18;7.50;99.90
13806;DHT22;6974;53.606;9.872;2023-03-14T14:02:47;7.50;99.90
13806;DHT22;6974;53.606;9.872;2023-03-14T14:05:14;7.40;99.90
13806;DHT22;6974;53.606;9.872;2023-03-14T14:07:43;7.30;99.90
13806;DHT22;6974;53.606;9.872;2023-03-14T14:10:11;7.20;99.90
13806;DHT22;6974;53.606;9.872;2023-03-14T14:12:41;7.20;99.90
13806;DHT22;6974;53.606;9.872;2023-03-14T14:15:13;7.30;99.90
13806;DHT22;6974;53.606;9.872;2023-03-14T14:17:44;7.40;99.90
13806;DHT22;6974;53.606;9.872;2023-03-14T14:20:20;7.40;99.90
13806;DHT22;6974;53.606;9.872;2023-03-14T14:22:48;7.40;99.90
13806;DHT22;6974;53.606;9.872;2023-03-14T14:25:16;7.50;99.90
13806;DHT22;6974;53.606;9.872;2023-03-14T14:27:46;7.50;99.90
13806;DHT22;6974;53.606;9.872;2023-03-14T14:30:29;7.50;99.90
13806;DHT22;6974;53.606;9.872;2023-03-14T14:33:12;7.30;99.90
13806;DHT22;6974;53.606;9.872;2023-03-14T14:35:50;7.30;99.90
13806;DHT22;6974;53.606;9.872;2023-03-14T14:38:18;7.30;99.90
13806;DHT22;6974;53.606;9.872;2023-03-14T14:40:47;7.40;99.90
13806;DHT22;6974;53.606;9.872;2023-03-14T14:43:17;7.40;99.90
13806;DHT22;6974;53.606;9.872;2023-03-14T14:45:46;7.50;99.90
13806;DHT22;6974;53.606;9.872;2023-03-14T14:48:14;7.60;99.90
13806;DHT22;6974;53.606;9.872;2023-03-14T14:50:55;7.50;99.90
13806;DHT22;6974;53.606;9.872;2023-03-14T14:53:26;7.50;99.90
13806;DHT22;6974;53.606;9.872;2023-03-14T14:55:55;7.40;99.90
13806;DHT22;6974;53.606;9.872;2023-03-14T14:58:25;7.40;99.90
13806;DHT22;6974;53.606;9.872;2023-03-14T15:00:56;7.50;99.90
13806;DHT22;6974;53.606;9.872;2023-03-14T15:03:26;7.50;99.90
13806;DHT22;6974;53.606;9.872;2023-03-14T15:05:55;7.70;99.90
13806;DHT22;6974;53.606;9.872;2023-03-14T15:08:24;7.70;99.90
13806;DHT22;6974;53.606;9.872;2023-03-14T15:10:51;7.80;99.90
13806;DHT22;6974;53.606;9.872;2023-03-14T15:13:18;7.70;99.90
13806;DHT22;6974;53.606;9.872;2023-03-14T15:15:45;7.50;99.90
13806;DHT22;6974;53.606;9.872;2023-03-14T15:18:14;7.50;99.90
13806;DHT22;6974;53.606;9.872;2023-03-14T15:20:42;7.40;99.90
13806;DHT22;6974;53.606;9.872;2023-03-14T15:23:14;7.40;99.90
13806;DHT22;6974;53.606;9.872;2023-03-14T15:25:42;7.30;99.90
13806;DHT22;6974;53.606;9.872;2023-03-14T15:28:18;7.30;99.90
13806;DHT22;6974;53.606;9.872;2023-03-14T15:30:47;7.20;99.90
13806;DHT22;6974;53.606;9.872;2023-03-14T15:33:14;7.20;99.90
13806;DHT22;6974;53.606;9.872;2023-03-14T15:35:41;7.20;99.90
13806;DHT22;6974;53.606;9.872;2023-03-14T15:38:10;7.10;99.90
13806;DHT22;6974;53.606;9.872;2023-03-14T15:40:40;7.10;99.90
13806;DHT22;6974;53.606;9.872;2023-03-14T15:43:08;7.10;99.90
13806;DHT22;6974;53.606;9.872;2023-03-14T15:45:35;7.00;99.90
13806;DHT22;6974;53.606;9.872;2023-03-14T15:48:04;6.90;99.90
13806;DHT22;6974;53.606;9.872;2023-03-14T15:50:31;6.90;99.90
13806;DHT22;6974;53.606;9.872;2023-03-14T15:52:58;6.90;99.90
13806;DHT22;6974;53.606;9.872;2023-03-14T15:55:24;6.90;99.90
13806;DHT22;6974;53.606;9.872;2023-03-14T15:57:52;7.00;99.90
13806;DHT22;6974;53.606;9.872;2023-03-14T16:00:20;7.10;99.90
13806;DHT22;6974;53.606;9.872;2023-03-14T16:02:48;7.10;99.90
13806;DHT22;6974;53.606;9.872;2023-03-14T16:05:15;7.10;99.90
13806;DHT22;6974;53.606;9.872;2023-03-14T16:07:43;7.20;99.90
13806;DHT22;6974;53.606;9.872;2023-03-14T16:10:11;7.20;99.90
13806;DHT22;6974;53.606;9.872;2023-03-14T16:12:39;7.10;99.90
13806;DHT22;6974;53.606;9.872;2023-03-14T16:15:09;7.20;99.90
13806;DHT22;6974;53.606;9.872;2023-03-14T16:17:36;7.10;99.90